Ontario International Airport
KONT : rendu visible

Aérodrome :











RETROUVEZ-NOUS SUR...

 
LOGIN :

S'inscrire | Disclaimer

   EN    FR    IT 

 









Légende :    VFR   VFR Marginal   IFR   IFR Intensif   IFR Très Intensif
Visi : 
Plafond : 
>= 8 km
>= 3000ft
5 à 8 km
1000 à 3000 ft
1500m à 5 km
500 à 1000 ft
800 à 1500m
200 à 500 ft
< 800m
< 200 ft
Symboles :   Orages  Brouillard  Fortes neiges  Fortes précipitations  Vent > 20 kt






- Altitude de l'aérodrome : 944 ft
- Code IATA : ONT


KONT - Ontario International

DERNIER METAR :
  • 121053Z 00000KT 4SM BR SCT000 SCT250 13/11 A3004 RMK AO2 SLP164 BR SCT000 T01280106 $

METARs EXPIRÉS :
  • 120953Z 01003KT 4SM BR FEW000 FEW010 SCT250 13/11 A3006 RMK AO2 SLP169 BR FEW000 T01330111
  • 120853Z VRB04KT 4SM BR FEW000 FEW010 SCT250 13/11 A3006 RMK AO2 SLP170 BR FEW000 T01280111 50001

TAF KONT
Valide du 12 à 12h jusqu'au 13 à 18h UTC


121120Z 1212/1318 VRB03KT 4SM BR SKC
FM121600 VRB04KT P6SM SKC
FM122000 26008KT P6SM SKC
FM130300 VRB04KT P6SM SKC



MET'MAP, la Météo Aéronautique d'un coup d'oeil ! - Copyright ORBIFLY Décembre 2007 - Disclaimer

ORBIFLY MET'MAP TEAM :

Programmation & Développement : Alexandra Zaïnal
Conception & Développement : Baudouin d'Aumeries
Co-Programmation & Développement : Marc-Olivier Méhu
Soutien technique & logistique : Manuel Goepfert

Contact : metmap@orbifly.com




SOURCES & CREDITS :

   NOAA       Earth
Advisory